岡山グライダークラブ活動状況掲示板

岡山グライダークラブ
岡山市浦安南町639-1 岡南飛行場
 使用機:シャイベ式 SF25C型 ファルケ   JA2330
      ヴァレンティン式17E型 タイフーン  JA2342
 練習日:毎日曜日  クラブルーム:電話 086-265-1810
この掲示板は岡山グライダークラブの活動状況をお知らせする掲示板です。
!!!この掲示板は投稿規制をしています。!!!
クラブ関連各種情報は 岡山グライダークラブクラブルーム      を       .
  ブリーフイング情報は  岡山グライダークラブブリーフィングルーム  をご覧下さい。 .
※写真はクリックすると拡大して見ることが出来ます。
岡南飛行場へのアクセス等は 岡南飛行場管理事務所 をご覧ください。
クラブの ホームページ ができました。

!!!緊急事態宣言、まん延防止等重点措置の解除に伴い、見学者等の受入を再開します。なお、来所の際には、こちらを順守願います。

 
09月19日
by OGC at 2021/9/19(日) 22:01:33 No.20210919215925  削除コメント
640 x 480 x 142,299バイト
No.1

09月19日
本日の参加者
  会員      11名
  その他      0名


@本日の様子






METAR
RJBK 190000Z VRB02KT 30KM FEW025CU SCT060SC 24/19 Q1014 A2995
RJOB 190000Z 01007KT 330V050 9999 FEW025 SCT045 24/18 Q1015
RJOT 190000Z 04003KT 340V090 9999 FEW020 SCT050 BKN080 23/20 Q1015
RJOA 190000Z 06008KT 9999 FEW025 SCT050 22/17 Q1015
TAF
RJOB 182306Z 1900/2006 03008KT 9999 FEW020
RJOT 182305Z 1900/2006 03006KT 9999 FEW025 SCT045
RJOA 182305Z 1900/2006 06005KT 9999 FEW020 SCT040
      BECMG 1912/1915 34004KT
      BECMG 1921/2000 08005KT

コロナの影響で活動自粛していましたが、本日から感染対策を十分に行いながら徐々に訓練を再開してまいります。
天候は晴れ、風も弱く、久々の訓練再開には最適な天候で、コンディションのいい一日でした。


解散    18:00

1番機  10:50離陸 撤収機  17:45着陸 

SF25C JA2330 ファルケ     10Flt.3h15min  
17E   JA2342 タイフーン    00Flt.0h00min
合計                    10Flt.3h15min

    << 戻る || ホームページ || 最新の掲示板へ